sensor_id;sensor_type;location;lat;lon;timestamp;P1;durP1;ratioP1;P2;durP2;ratioP2
11018;SDS011;5563;52.296;6.806;2023-04-24T00:02:04;4.63;;;4.22;;
11018;SDS011;5563;52.296;6.806;2023-04-24T00:04:40;5.13;;;4.40;;
11018;SDS011;5563;52.296;6.806;2023-04-24T00:07:11;4.97;;;4.57;;
11018;SDS011;5563;52.296;6.806;2023-04-24T00:09:39;4.30;;;3.97;;
11018;SDS011;5563;52.296;6.806;2023-04-24T00:12:12;4.78;;;4.30;;
11018;SDS011;5563;52.296;6.806;2023-04-24T00:14:39;5.45;;;4.68;;
11018;SDS011;5563;52.296;6.806;2023-04-24T00:17:12;5.20;;;4.80;;
11018;SDS011;5563;52.296;6.806;2023-04-24T00:19:39;5.35;;;4.95;;
11018;SDS011;5563;52.296;6.806;2023-04-24T00:22:12;5.45;;;5.05;;
11018;SDS011;5563;52.296;6.806;2023-04-24T00:24:39;5.63;;;5.00;;
11018;SDS011;5563;52.296;6.806;2023-04-24T00:27:13;5.25;;;4.85;;
11018;SDS011;5563;52.296;6.806;2023-04-24T00:29:40;5.65;;;5.15;;
11018;SDS011;5563;52.296;6.806;2023-04-24T00:32:13;6.05;;;5.53;;
11018;SDS011;5563;52.296;6.806;2023-04-24T00:34:41;6.05;;;5.45;;
11018;SDS011;5563;52.296;6.806;2023-04-24T00:37:14;6.00;;;5.50;;
11018;SDS011;5563;52.296;6.806;2023-04-24T00:39:41;5.43;;;4.93;;
11018;SDS011;5563;52.296;6.806;2023-04-24T00:42:15;6.22;;;5.40;;
11018;SDS011;5563;52.296;6.806;2023-04-24T00:44:42;7.25;;;6.55;;
11018;SDS011;5563;52.296;6.806;2023-04-24T00:47:09;6.82;;;6.20;;
11018;SDS011;5563;52.296;6.806;2023-04-24T00:49:43;5.65;;;5.10;;
11018;SDS011;5563;52.296;6.806;2023-04-24T00:52:11;6.60;;;5.55;;
11018;SDS011;5563;52.296;6.806;2023-04-24T00:54:45;6.80;;;6.20;;
11018;SDS011;5563;52.296;6.806;2023-04-24T00:57:13;6.93;;;6.22;;
11018;SDS011;5563;52.296;6.806;2023-04-24T00:59:51;6.88;;;6.32;;
11018;SDS011;5563;52.296;6.806;2023-04-24T01:02:19;7.07;;;6.40;;
11018;SDS011;5563;52.296;6.806;2023-04-24T01:04:55;6.45;;;5.68;;
11018;SDS011;5563;52.296;6.806;2023-04-24T01:07:23;7.20;;;6.55;;
11018;SDS011;5563;52.296;6.806;2023-04-24T01:09:57;8.52;;;7.57;;
11018;SDS011;5563;52.296;6.806;2023-04-24T01:12:32;8.45;;;7.70;;
11018;SDS011;5563;52.296;6.806;2023-04-24T01:15:12;9.25;;;8.45;;
11018;SDS011;5563;52.296;6.806;2023-04-24T01:17:52;8.10;;;7.30;;
11018;SDS011;5563;52.296;6.806;2023-04-24T01:20:25;9.93;;;7.60;;
11018;SDS011;5563;52.296;6.806;2023-04-24T01:22:59;8.90;;;8.00;;
11018;SDS011;5563;52.296;6.806;2023-04-24T01:25:26;10.68;;;9.57;;
11018;SDS011;5563;52.296;6.806;2023-04-24T01:28:00;10.43;;;9.38;;
11018;SDS011;5563;52.296;6.806;2023-04-24T01:30:33;11.25;;;10.15;;
11018;SDS011;5563;52.296;6.806;2023-04-24T01:33:06;11.48;;;10.27;;
11018;SDS011;5563;52.296;6.806;2023-04-24T01:35:34;12.50;;;11.27;;
11018;SDS011;5563;52.296;6.806;2023-04-24T01:38:08;11.57;;;10.48;;
11018;SDS011;5563;52.296;6.806;2023-04-24T01:40:35;12.00;;;10.80;;
11018;SDS011;5563;52.296;6.806;2023-04-24T01:43:08;12.02;;;10.82;;
11018;SDS011;5563;52.296;6.806;2023-04-24T01:45:35;11.75;;;10.50;;
11018;SDS011;5563;52.296;6.806;2023-04-24T01:48:08;11.48;;;10.27;;
11018;SDS011;5563;52.296;6.806;2023-04-24T01:50:42;10.90;;;9.90;;
11018;SDS011;5563;52.296;6.806;2023-04-24T01:53:09;10.38;;;9.43;;
11018;SDS011;5563;52.296;6.806;2023-04-24T01:55:44;10.50;;;9.43;;
11018;SDS011;5563;52.296;6.806;2023-04-24T01:58:11;10.20;;;9.20;;
11018;SDS011;5563;52.296;6.806;2023-04-24T02:00:44;10.20;;;9.20;;
11018;SDS011;5563;52.296;6.806;2023-04-24T02:03:11;11.18;;;9.75;;
11018;SDS011;5563;52.296;6.806;2023-04-24T02:05:44;9.70;;;8.80;;
11018;SDS011;5563;52.296;6.806;2023-04-24T02:08:12;9.82;;;8.82;;
11018;SDS011;5563;52.296;6.806;2023-04-24T02:10:45;9.55;;;8.57;;
11018;SDS011;5563;52.296;6.806;2023-04-24T02:13:12;9.38;;;8.48;;
11018;SDS011;5563;52.296;6.806;2023-04-24T02:15:52;9.20;;;8.27;;
11018;SDS011;5563;52.296;6.806;2023-04-24T02:18:32;8.93;;;8.02;;
11018;SDS011;5563;52.296;6.806;2023-04-24T02:21:05;9.07;;;8.05;;
11018;SDS011;5563;52.296;6.806;2023-04-24T02:23:32;9.20;;;8.15;;
11018;SDS011;5563;52.296;6.806;2023-04-24T02:26:07;9.82;;;8.85;;
11018;SDS011;5563;52.296;6.806;2023-04-24T02:28:34;9.50;;;8.07;;
11018;SDS011;5563;52.296;6.806;2023-04-24T02:31:07;10.48;;;9.30;;
11018;SDS011;5563;52.296;6.806;2023-04-24T02:33:34;11.30;;;9.18;;
11018;SDS011;5563;52.296;6.806;2023-04-24T02:36:08;11.15;;;9.85;;
11018;SDS011;5563;52.296;6.806;2023-04-24T02:38:41;11.02;;;9.40;;
11018;SDS011;5563;52.296;6.806;2023-04-24T02:41:08;10.80;;;9.70;;
11018;SDS011;5563;52.296;6.806;2023-04-24T02:43:41;11.45;;;10.27;;
11018;SDS011;5563;52.296;6.806;2023-04-24T02:46:08;11.45;;;9.88;;
11018;SDS011;5563;52.296;6.806;2023-04-24T02:48:42;12.35;;;10.93;;
11018;SDS011;5563;52.296;6.806;2023-04-24T02:51:08;12.80;;;11.50;;
11018;SDS011;5563;52.296;6.806;2023-04-24T02:53:42;12.52;;;11.23;;
11018;SDS011;5563;52.296;6.806;2023-04-24T02:56:09;13.30;;;11.93;;
11018;SDS011;5563;52.296;6.806;2023-04-24T02:58:44;14.23;;;12.13;;
11018;SDS011;5563;52.296;6.806;2023-04-24T03:01:11;12.93;;;11.63;;
11018;SDS011;5563;52.296;6.806;2023-04-24T03:03:45;12.25;;;10.95;;
11018;SDS011;5563;52.296;6.806;2023-04-24T03:06:12;13.32;;;11.27;;
11018;SDS011;5563;52.296;6.806;2023-04-24T03:08:45;10.55;;;9.40;;
11018;SDS011;5563;52.296;6.806;2023-04-24T03:11:12;11.35;;;10.15;;
11018;SDS011;5563;52.296;6.806;2023-04-24T03:13:45;10.40;;;8.45;;
11018;SDS011;5563;52.296;6.806;2023-04-24T03:16:25;11.65;;;10.45;;
11018;SDS011;5563;52.296;6.806;2023-04-24T03:18:52;11.73;;;10.52;;
11018;SDS011;5563;52.296;6.806;2023-04-24T03:21:25;15.02;;;12.55;;
11018;SDS011;5563;52.296;6.806;2023-04-24T03:23:52;15.15;;;13.63;;
11018;SDS011;5563;52.296;6.806;2023-04-24T03:26:25;15.23;;;13.55;;
11018;SDS011;5563;52.296;6.806;2023-04-24T03:28:53;16.13;;;13.60;;
11018;SDS011;5563;52.296;6.806;2023-04-24T03:31:26;15.88;;;13.55;;
11018;SDS011;5563;52.296;6.806;2023-04-24T03:33:53;15.32;;;13.68;;
11018;SDS011;5563;52.296;6.806;2023-04-24T03:36:27;11.43;;;9.65;;
11018;SDS011;5563;52.296;6.806;2023-04-24T03:38:54;10.98;;;9.73;;
11018;SDS011;5563;52.296;6.806;2023-04-24T03:41:27;14.90;;;11.65;;
11018;SDS011;5563;52.296;6.806;2023-04-24T03:43:55;12.77;;;11.38;;
11018;SDS011;5563;52.296;6.806;2023-04-24T03:46:28;16.15;;;13.48;;
11018;SDS011;5563;52.296;6.806;2023-04-24T03:49:09;14.93;;;11.50;;
11018;SDS011;5563;52.296;6.806;2023-04-24T03:51:35;14.20;;;11.82;;
11018;SDS011;5563;52.296;6.806;2023-04-24T03:54:09;15.68;;;12.45;;
11018;SDS011;5563;52.296;6.806;2023-04-24T03:56:36;12.35;;;11.05;;
11018;SDS011;5563;52.296;6.806;2023-04-24T03:59:09;14.70;;;11.38;;
11018;SDS011;5563;52.296;6.806;2023-04-24T04:01:36;14.55;;;11.98;;
11018;SDS011;5563;52.296;6.806;2023-04-24T04:04:09;13.55;;;9.68;;
11018;SDS011;5563;52.296;6.806;2023-04-24T04:06:37;14.70;;;12.25;;
11018;SDS011;5563;52.296;6.806;2023-04-24T04:09:10;16.23;;;13.77;;
11018;SDS011;5563;52.296;6.806;2023-04-24T04:11:43;15.25;;;13.23;;
11018;SDS011;5563;52.296;6.806;2023-04-24T04:14:16;15.73;;;13.77;;
11018;SDS011;5563;52.296;6.806;2023-04-24T04:16:50;16.75;;;14.98;;
11018;SDS011;5563;52.296;6.806;2023-04-24T04:19:23;17.70;;;14.57;;
11018;SDS011;5563;52.296;6.806;2023-04-24T04:21:50;18.35;;;14.95;;
11018;SDS011;5563;52.296;6.806;2023-04-24T04:24:25;19.23;;;13.57;;
11018;SDS011;5563;52.296;6.806;2023-04-24T04:26:52;17.08;;;13.70;;
11018;SDS011;5563;52.296;6.806;2023-04-24T04:29:22;16.27;;;14.15;;
11018;SDS011;5563;52.296;6.806;2023-04-24T04:31:57;19.02;;;17.02;;
11018;SDS011;5563;52.296;6.806;2023-04-24T04:34:24;20.00;;;16.40;;
11018;SDS011;5563;52.296;6.806;2023-04-24T04:36:57;19.25;;;16.35;;
11018;SDS011;5563;52.296;6.806;2023-04-24T04:39:28;20.40;;;16.02;;
11018;SDS011;5563;52.296;6.806;2023-04-24T04:42:03;19.88;;;17.52;;
11018;SDS011;5563;52.296;6.806;2023-04-24T04:44:30;20.00;;;17.40;;
11018;SDS011;5563;52.296;6.806;2023-04-24T04:47:03;20.40;;;18.08;;
11018;SDS011;5563;52.296;6.806;2023-04-24T04:49:32;22.75;;;17.08;;
11018;SDS011;5563;52.296;6.806;2023-04-24T04:52:06;22.73;;;18.65;;
11018;SDS011;5563;52.296;6.806;2023-04-24T04:54:33;21.60;;;17.73;;
11018;SDS011;5563;52.296;6.806;2023-04-24T04:57:06;24.23;;;20.25;;
11018;SDS011;5563;52.296;6.806;2023-04-24T04:59:34;23.83;;;20.60;;
11018;SDS011;5563;52.296;6.806;2023-04-24T05:02:01;22.58;;;18.23;;
11018;SDS011;5563;52.296;6.806;2023-04-24T05:04:34;23.70;;;20.00;;
11018;SDS011;5563;52.296;6.806;2023-04-24T05:07:01;22.02;;;18.25;;
11018;SDS011;5563;52.296;6.806;2023-04-24T05:09:36;22.55;;;19.05;;
11018;SDS011;5563;52.296;6.806;2023-04-24T05:12:03;26.20;;;21.58;;
11018;SDS011;5563;52.296;6.806;2023-04-24T05:14:36;23.35;;;20.45;;
11018;SDS011;5563;52.296;6.806;2023-04-24T05:17:03;26.92;;;20.55;;
11018;SDS011;5563;52.296;6.806;2023-04-24T05:19:43;25.70;;;20.75;;
11018;SDS011;5563;52.296;6.806;2023-04-24T05:22:11;21.52;;;17.65;;
11018;SDS011;5563;52.296;6.806;2023-04-24T05:24:44;25.00;;;19.88;;
11018;SDS011;5563;52.296;6.806;2023-04-24T05:27:11;20.50;;;15.52;;
11018;SDS011;5563;52.296;6.806;2023-04-24T05:29:45;19.02;;;15.18;;
11018;SDS011;5563;52.296;6.806;2023-04-24T05:32:12;21.35;;;18.30;;
11018;SDS011;5563;52.296;6.806;2023-04-24T05:34:45;24.20;;;17.38;;
11018;SDS011;5563;52.296;6.806;2023-04-24T05:37:12;21.42;;;18.02;;
11018;SDS011;5563;52.296;6.806;2023-04-24T05:39:46;24.63;;;18.92;;
11018;SDS011;5563;52.296;6.806;2023-04-24T05:42:19;19.35;;;16.65;;
11018;SDS011;5563;52.296;6.806;2023-04-24T05:44:52;21.98;;;19.17;;
11018;SDS011;5563;52.296;6.806;2023-04-24T05:47:27;25.35;;;20.23;;
11018;SDS011;5563;52.296;6.806;2023-04-24T05:49:54;23.38;;;19.25;;
11018;SDS011;5563;52.296;6.806;2023-04-24T05:52:27;21.40;;;17.70;;
11018;SDS011;5563;52.296;6.806;2023-04-24T05:54:54;21.50;;;16.30;;
11018;SDS011;5563;52.296;6.806;2023-04-24T05:57:28;22.83;;;17.92;;
11018;SDS011;5563;52.296;6.806;2023-04-24T05:59:55;24.25;;;19.83;;
11018;SDS011;5563;52.296;6.806;2023-04-24T06:02:28;20.25;;;17.70;;
11018;SDS011;5563;52.296;6.806;2023-04-24T06:04:59;21.50;;;17.55;;
11018;SDS011;5563;52.296;6.806;2023-04-24T06:07:33;21.52;;;17.13;;
11018;SDS011;5563;52.296;6.806;2023-04-24T06:10:00;20.63;;;17.83;;
11018;SDS011;5563;52.296;6.806;2023-04-24T06:12:33;22.30;;;18.48;;
11018;SDS011;5563;52.296;6.806;2023-04-24T06:15:00;20.50;;;17.08;;
11018;SDS011;5563;52.296;6.806;2023-04-24T06:17:40;23.88;;;15.98;;
11018;SDS011;5563;52.296;6.806;2023-04-24T06:20:13;20.30;;;18.17;;
11018;SDS011;5563;52.296;6.806;2023-04-24T06:22:46;18.88;;;16.67;;
11018;SDS011;5563;52.296;6.806;2023-04-24T06:25:20;19.60;;;17.08;;
11018;SDS011;5563;52.296;6.806;2023-04-24T06:27:54;22.83;;;16.33;;
11018;SDS011;5563;52.296;6.806;2023-04-24T06:30:22;19.38;;;15.82;;
11018;SDS011;5563;52.296;6.806;2023-04-24T06:32:49;19.83;;;16.23;;
11018;SDS011;5563;52.296;6.806;2023-04-24T06:35:35;19.60;;;14.75;;
11018;SDS011;5563;52.296;6.806;2023-04-24T06:38:02;21.30;;;18.23;;
11018;SDS011;5563;52.296;6.806;2023-04-24T06:40:36;20.35;;;17.02;;
11018;SDS011;5563;52.296;6.806;2023-04-24T06:43:06;20.67;;;15.65;;
11018;SDS011;5563;52.296;6.806;2023-04-24T06:45:39;22.17;;;16.08;;
11018;SDS011;5563;52.296;6.806;2023-04-24T06:48:09;20.35;;;16.38;;
11018;SDS011;5563;52.296;6.806;2023-04-24T06:50:43;18.55;;;15.05;;
11018;SDS011;5563;52.296;6.806;2023-04-24T06:53:11;17.92;;;14.68;;
11018;SDS011;5563;52.296;6.806;2023-04-24T06:55:45;20.15;;;17.00;;
11018;SDS011;5563;52.296;6.806;2023-04-24T06:58:18;20.90;;;15.80;;
11018;SDS011;5563;52.296;6.806;2023-04-24T07:00:52;18.80;;;14.40;;
11018;SDS011;5563;52.296;6.806;2023-04-24T07:03:26;17.92;;;15.15;;
11018;SDS011;5563;52.296;6.806;2023-04-24T07:05:53;18.60;;;15.10;;
11018;SDS011;5563;52.296;6.806;2023-04-24T07:08:27;16.85;;;13.68;;
11018;SDS011;5563;52.296;6.806;2023-04-24T07:10:57;16.83;;;14.85;;
11018;SDS011;5563;52.296;6.806;2023-04-24T07:13:30;16.83;;;14.57;;
11018;SDS011;5563;52.296;6.806;2023-04-24T07:15:56;17.05;;;13.95;;
11018;SDS011;5563;52.296;6.806;2023-04-24T07:18:31;18.58;;;13.38;;
11018;SDS011;5563;52.296;6.806;2023-04-24T07:21:06;16.45;;;13.52;;
11018;SDS011;5563;52.296;6.806;2023-04-24T07:23:39;15.27;;;13.65;;
11018;SDS011;5563;52.296;6.806;2023-04-24T07:26:07;16.55;;;13.85;;
11018;SDS011;5563;52.296;6.806;2023-04-24T07:28:41;17.08;;;13.48;;
11018;SDS011;5563;52.296;6.806;2023-04-24T07:31:13;14.85;;;12.88;;
11018;SDS011;5563;52.296;6.806;2023-04-24T07:33:48;16.90;;;13.18;;
11018;SDS011;5563;52.296;6.806;2023-04-24T07:36:15;13.93;;;12.52;;
11018;SDS011;5563;52.296;6.806;2023-04-24T07:38:45;17.30;;;12.98;;
11018;SDS011;5563;52.296;6.806;2023-04-24T07:41:18;15.55;;;12.88;;
11018;SDS011;5563;52.296;6.806;2023-04-24T07:43:46;13.93;;;12.38;;
11018;SDS011;5563;52.296;6.806;2023-04-24T07:46:20;15.52;;;12.57;;
11018;SDS011;5563;52.296;6.806;2023-04-24T07:48:47;14.02;;;12.38;;
11018;SDS011;5563;52.296;6.806;2023-04-24T07:51:37;12.82;;;11.38;;
11018;SDS011;5563;52.296;6.806;2023-04-24T07:54:05;15.35;;;12.40;;
11018;SDS011;5563;52.296;6.806;2023-04-24T07:56:38;14.25;;;11.05;;
11018;SDS011;5563;52.296;6.806;2023-04-24T07:59:08;12.48;;;10.90;;
11018;SDS011;5563;52.296;6.806;2023-04-24T08:01:42;11.98;;;9.93;;
11018;SDS011;5563;52.296;6.806;2023-04-24T08:04:09;15.35;;;9.50;;
11018;SDS011;5563;52.296;6.806;2023-04-24T08:06:43;10.48;;;8.48;;
11018;SDS011;5563;52.296;6.806;2023-04-24T08:09:16;10.52;;;8.45;;
11018;SDS011;5563;52.296;6.806;2023-04-24T08:11:52;9.02;;;7.90;;
11018;SDS011;5563;52.296;6.806;2023-04-24T08:14:26;8.77;;;7.35;;
11018;SDS011;5563;52.296;6.806;2023-04-24T08:17:06;9.05;;;6.85;;
11018;SDS011;5563;52.296;6.806;2023-04-24T08:19:40;9.73;;;7.72;;
11018;SDS011;5563;52.296;6.806;2023-04-24T08:22:20;8.38;;;7.45;;
11018;SDS011;5563;52.296;6.806;2023-04-24T08:24:54;9.65;;;7.45;;
11018;SDS011;5563;52.296;6.806;2023-04-24T08:27:29;9.40;;;8.18;;
11018;SDS011;5563;52.296;6.806;2023-04-24T08:29:56;8.27;;;6.93;;
11018;SDS011;5563;52.296;6.806;2023-04-24T08:32:23;8.40;;;7.00;;
11018;SDS011;5563;52.296;6.806;2023-04-24T08:34:57;7.65;;;6.32;;
11018;SDS011;5563;52.296;6.806;2023-04-24T08:37:25;8.02;;;6.43;;
11018;SDS011;5563;52.296;6.806;2023-04-24T08:40:00;7.18;;;5.82;;
11018;SDS011;5563;52.296;6.806;2023-04-24T08:42:28;8.23;;;6.20;;
11018;SDS011;5563;52.296;6.806;2023-04-24T08:45:01;6.80;;;5.63;;
11018;SDS011;5563;52.296;6.806;2023-04-24T08:47:29;6.75;;;5.63;;
11018;SDS011;5563;52.296;6.806;2023-04-24T08:50:03;6.57;;;5.85;;
11018;SDS011;5563;52.296;6.806;2023-04-24T08:52:32;6.35;;;5.30;;
11018;SDS011;5563;52.296;6.806;2023-04-24T08:55:06;7.07;;;5.80;;
11018;SDS011;5563;52.296;6.806;2023-04-24T08:57:34;6.07;;;5.32;;
11018;SDS011;5563;52.296;6.806;2023-04-24T09:00:12;6.47;;;5.07;;
11018;SDS011;5563;52.296;6.806;2023-04-24T09:02:41;6.47;;;4.95;;
11018;SDS011;5563;52.296;6.806;2023-04-24T09:05:16;6.45;;;5.63;;
11018;SDS011;5563;52.296;6.806;2023-04-24T09:07:45;6.43;;;4.30;;
11018;SDS011;5563;52.296;6.806;2023-04-24T09:10:22;4.97;;;4.30;;
11018;SDS011;5563;52.296;6.806;2023-04-24T09:12:57;4.15;;;3.60;;
11018;SDS011;5563;52.296;6.806;2023-04-24T09:15:27;4.95;;;3.70;;
11018;SDS011;5563;52.296;6.806;2023-04-24T09:18:01;4.10;;;3.70;;
11018;SDS011;5563;52.296;6.806;2023-04-24T09:20:35;4.07;;;3.30;;
11018;SDS011;5563;52.296;6.806;2023-04-24T09:23:39;4.03;;;3.15;;
11018;SDS011;5563;52.296;6.806;2023-04-24T09:26:08;4.18;;;3.63;;
11018;SDS011;5563;52.296;6.806;2023-04-24T09:28:43;6.13;;;5.53;;
11018;SDS011;5563;52.296;6.806;2023-04-24T09:31:14;10.02;;;8.18;;
11018;SDS011;5563;52.296;6.806;2023-04-24T09:33:54;10.02;;;7.95;;
11018;SDS011;5563;52.296;6.806;2023-04-24T09:36:30;11.25;;;8.98;;
11018;SDS011;5563;52.296;6.806;2023-04-24T09:39:10;13.80;;;9.68;;
11018;SDS011;5563;52.296;6.806;2023-04-24T09:41:43;15.48;;;10.45;;
11018;SDS011;5563;52.296;6.806;2023-04-24T09:44:21;12.43;;;10.02;;
11018;SDS011;5563;52.296;6.806;2023-04-24T09:46:56;14.55;;;10.77;;
11018;SDS011;5563;52.296;6.806;2023-04-24T09:49:31;15.23;;;10.93;;
11018;SDS011;5563;52.296;6.806;2023-04-24T09:52:05;13.45;;;10.32;;
11018;SDS011;5563;52.296;6.806;2023-04-24T09:54:42;13.02;;;10.48;;
11018;SDS011;5563;52.296;6.806;2023-04-24T09:57:25;14.45;;;10.80;;
11018;SDS011;5563;52.296;6.806;2023-04-24T09:59:58;17.02;;;10.40;;
11018;SDS011;5563;52.296;6.806;2023-04-24T10:02:26;14.52;;;10.68;;
11018;SDS011;5563;52.296;6.806;2023-04-24T10:04:59;15.98;;;11.18;;
11018;SDS011;5563;52.296;6.806;2023-04-24T10:07:33;13.63;;;10.15;;
11018;SDS011;5563;52.296;6.806;2023-04-24T10:10:07;13.73;;;10.32;;
11018;SDS011;5563;52.296;6.806;2023-04-24T10:12:41;13.50;;;11.15;;
11018;SDS011;5563;52.296;6.806;2023-04-24T10:15:22;13.38;;;10.20;;
11018;SDS011;5563;52.296;6.806;2023-04-24T10:18:04;11.30;;;10.00;;
11018;SDS011;5563;52.296;6.806;2023-04-24T10:20:39;12.55;;;10.18;;
11018;SDS011;5563;52.296;6.806;2023-04-24T10:23:13;16.30;;;10.05;;
11018;SDS011;5563;52.296;6.806;2023-04-24T10:25:41;14.38;;;11.00;;
11018;SDS011;5563;52.296;6.806;2023-04-24T10:28:14;15.23;;;10.65;;
11018;SDS011;5563;52.296;6.806;2023-04-24T10:30:42;18.45;;;11.50;;
11018;SDS011;5563;52.296;6.806;2023-04-24T10:33:16;15.20;;;10.52;;
11018;SDS011;5563;52.296;6.806;2023-04-24T10:35:44;14.27;;;10.10;;
11018;SDS011;5563;52.296;6.806;2023-04-24T10:38:22;15.57;;;10.23;;
11018;SDS011;5563;52.296;6.806;2023-04-24T10:41:11;18.15;;;10.57;;
11018;SDS011;5563;52.296;6.806;2023-04-24T10:46:43;10.18;;;8.38;;
11018;SDS011;5563;52.296;6.806;2023-04-24T10:49:11;10.85;;;7.78;;
11018;SDS011;5563;52.296;6.806;2023-04-24T10:54:23;7.05;;;5.38;;
11018;SDS011;5563;52.296;6.806;2023-04-24T11:02:49;8.23;;;4.57;;
11018;SDS011;5563;52.296;6.806;2023-04-24T11:05:49;10.75;;;5.03;;
11018;SDS011;5563;52.296;6.806;2023-04-24T11:08:38;8.73;;;4.75;;
11018;SDS011;5563;52.296;6.806;2023-04-24T11:11:17;7.85;;;4.40;;
11018;SDS011;5563;52.296;6.806;2023-04-24T11:16:51;9.43;;;4.80;;
11018;SDS011;5563;52.296;6.806;2023-04-24T11:19:33;9.85;;;4.72;;
11018;SDS011;5563;52.296;6.806;2023-04-24T11:22:14;10.88;;;5.70;;
11018;SDS011;5563;52.296;6.806;2023-04-24T11:27:19;9.85;;;4.72;;
11018;SDS011;5563;52.296;6.806;2023-04-24T11:35:00;11.07;;;4.70;;
11018;SDS011;5563;52.296;6.806;2023-04-24T11:37:40;14.38;;;5.50;;
11018;SDS011;5563;52.296;6.806;2023-04-24T11:40:35;9.88;;;4.93;;
11018;SDS011;5563;52.296;6.806;2023-04-24T11:43:06;8.90;;;4.63;;
11018;SDS011;5563;52.296;6.806;2023-04-24T11:45:47;6.63;;;3.80;;
11018;SDS011;5563;52.296;6.806;2023-04-24T11:48:21;7.28;;;3.85;;
11018;SDS011;5563;52.296;6.806;2023-04-24T11:50:50;6.78;;;3.50;;
11018;SDS011;5563;52.296;6.806;2023-04-24T11:53:23;7.68;;;2.90;;
11018;SDS011;5563;52.296;6.806;2023-04-24T11:55:56;6.55;;;2.97;;
11018;SDS011;5563;52.296;6.806;2023-04-24T11:58:22;8.23;;;3.38;;
11018;SDS011;5563;52.296;6.806;2023-04-24T12:00:56;8.50;;;3.10;;
11018;SDS011;5563;52.296;6.806;2023-04-24T12:03:27;5.65;;;3.80;;
11018;SDS011;5563;52.296;6.806;2023-04-24T12:06:04;5.70;;;3.40;;
11018;SDS011;5563;52.296;6.806;2023-04-24T12:08:34;5.93;;;3.40;;
11018;SDS011;5563;52.296;6.806;2023-04-24T12:11:08;10.07;;;3.17;;
11018;SDS011;5563;52.296;6.806;2023-04-24T12:13:35;5.28;;;3.13;;
11018;SDS011;5563;52.296;6.806;2023-04-24T12:16:15;8.82;;;3.22;;
11018;SDS011;5563;52.296;6.806;2023-04-24T12:18:43;4.75;;;3.20;;
11018;SDS011;5563;52.296;6.806;2023-04-24T12:21:20;2.67;;;2.42;;
11018;SDS011;5563;52.296;6.806;2023-04-24T12:23:55;4.80;;;2.58;;
11018;SDS011;5563;52.296;6.806;2023-04-24T12:26:22;4.82;;;3.08;;
11018;SDS011;5563;52.296;6.806;2023-04-24T12:28:56;4.47;;;2.85;;
11018;SDS011;5563;52.296;6.806;2023-04-24T12:31:29;7.10;;;2.83;;
11018;SDS011;5563;52.296;6.806;2023-04-24T12:34:17;6.55;;;2.70;;
11018;SDS011;5563;52.296;6.806;2023-04-24T12:36:51;5.72;;;2.78;;
11018;SDS011;5563;52.296;6.806;2023-04-24T12:39:18;4.10;;;2.53;;
11018;SDS011;5563;52.296;6.806;2023-04-24T12:42:04;5.00;;;2.63;;
11018;SDS011;5563;52.296;6.806;2023-04-24T12:44:38;7.18;;;2.80;;
11018;SDS011;5563;52.296;6.806;2023-04-24T12:47:04;9.18;;;2.97;;
11018;SDS011;5563;52.296;6.806;2023-04-24T12:49:38;4.72;;;2.67;;
11018;SDS011;5563;52.296;6.806;2023-04-24T12:52:05;7.90;;;2.80;;
11018;SDS011;5563;52.296;6.806;2023-04-24T12:54:39;4.40;;;2.13;;
11018;SDS011;5563;52.296;6.806;2023-04-24T12:57:12;3.83;;;2.50;;
11018;SDS011;5563;52.296;6.806;2023-04-24T12:59:38;5.30;;;2.10;;
11018;SDS011;5563;52.296;6.806;2023-04-24T13:02:12;2.45;;;1.98;;
11018;SDS011;5563;52.296;6.806;2023-04-24T13:04:39;5.22;;;2.65;;
11018;SDS011;5563;52.296;6.806;2023-04-24T13:07:12;4.60;;;2.35;;
11018;SDS011;5563;52.296;6.806;2023-04-24T13:09:43;3.97;;;2.10;;
11018;SDS011;5563;52.296;6.806;2023-04-24T13:12:11;4.55;;;1.88;;
11018;SDS011;5563;52.296;6.806;2023-04-24T13:14:45;4.55;;;1.75;;
11018;SDS011;5563;52.296;6.806;2023-04-24T13:17:12;3.17;;;1.55;;
11018;SDS011;5563;52.296;6.806;2023-04-24T13:19:49;3.45;;;1.80;;
11018;SDS011;5563;52.296;6.806;2023-04-24T13:22:24;3.67;;;1.98;;
11018;SDS011;5563;52.296;6.806;2023-04-24T13:24:51;2.90;;;1.70;;
11018;SDS011;5563;52.296;6.806;2023-04-24T13:27:25;3.08;;;1.80;;
11018;SDS011;5563;52.296;6.806;2023-04-24T13:29:51;2.55;;;1.80;;
11018;SDS011;5563;52.296;6.806;2023-04-24T13:32:18;4.68;;;1.70;;
11018;SDS011;5563;52.296;6.806;2023-04-24T13:34:52;2.88;;;1.80;;
11018;SDS011;5563;52.296;6.806;2023-04-24T13:37:19;7.97;;;2.13;;
11018;SDS011;5563;52.296;6.806;2023-04-24T13:39:53;3.38;;;1.58;;
11018;SDS011;5563;52.296;6.806;2023-04-24T13:42:19;3.47;;;1.60;;
11018;SDS011;5563;52.296;6.806;2023-04-24T13:44:53;2.53;;;1.48;;
11018;SDS011;5563;52.296;6.806;2023-04-24T13:47:20;2.20;;;1.20;;
11018;SDS011;5563;52.296;6.806;2023-04-24T13:49:54;1.95;;;1.27;;
11018;SDS011;5563;52.296;6.806;2023-04-24T13:52:20;2.08;;;1.25;;
11018;SDS011;5563;52.296;6.806;2023-04-24T13:54:54;2.78;;;1.48;;
11018;SDS011;5563;52.296;6.806;2023-04-24T13:57:21;1.85;;;1.35;;
11018;SDS011;5563;52.296;6.806;2023-04-24T13:59:48;1.30;;;1.20;;
11018;SDS011;5563;52.296;6.806;2023-04-24T14:02:22;2.05;;;1.45;;
11018;SDS011;5563;52.296;6.806;2023-04-24T14:04:49;1.67;;;1.10;;
11018;SDS011;5563;52.296;6.806;2023-04-24T14:07:22;2.58;;;1.25;;
11018;SDS011;5563;52.296;6.806;2023-04-24T14:09:52;2.53;;;1.33;;
11018;SDS011;5563;52.296;6.806;2023-04-24T14:12:25;3.92;;;1.33;;
11018;SDS011;5563;52.296;6.806;2023-04-24T14:14:52;1.67;;;1.30;;
11018;SDS011;5563;52.296;6.806;2023-04-24T14:17:26;2.80;;;1.30;;
11018;SDS011;5563;52.296;6.806;2023-04-24T14:19:59;2.13;;;1.10;;
11018;SDS011;5563;52.296;6.806;2023-04-24T14:22:33;2.83;;;1.02;;
11018;SDS011;5563;52.296;6.806;2023-04-24T14:24:59;1.70;;;1.08;;
11018;SDS011;5563;52.296;6.806;2023-04-24T14:27:33;3.30;;;1.30;;
11018;SDS011;5563;52.296;6.806;2023-04-24T14:30:01;2.90;;;1.33;;
11018;SDS011;5563;52.296;6.806;2023-04-24T14:32:37;1.90;;;1.05;;
11018;SDS011;5563;52.296;6.806;2023-04-24T14:35:05;2.88;;;1.33;;
11018;SDS011;5563;52.296;6.806;2023-04-24T14:37:33;2.63;;;1.10;;
11018;SDS011;5563;52.296;6.806;2023-04-24T14:40:07;4.50;;;1.33;;
11018;SDS011;5563;52.296;6.806;2023-04-24T14:42:55;2.70;;;1.23;;
11018;SDS011;5563;52.296;6.806;2023-04-24T14:45:31;2.85;;;1.35;;
11018;SDS011;5563;52.296;6.806;2023-04-24T14:47:58;5.22;;;1.38;;
11018;SDS011;5563;52.296;6.806;2023-04-24T14:50:31;2.55;;;1.42;;
11018;SDS011;5563;52.296;6.806;2023-04-24T14:52:58;2.90;;;1.50;;
11018;SDS011;5563;52.296;6.806;2023-04-24T14:55:31;3.65;;;1.80;;
11018;SDS011;5563;52.296;6.806;2023-04-24T14:57:58;2.70;;;1.80;;
11018;SDS011;5563;52.296;6.806;2023-04-24T15:00:32;3.38;;;1.95;;
11018;SDS011;5563;52.296;6.806;2023-04-24T15:03:05;5.95;;;2.17;;
11018;SDS011;5563;52.296;6.806;2023-04-24T15:05:32;2.80;;;1.65;;
11018;SDS011;5563;52.296;6.806;2023-04-24T15:08:05;6.65;;;1.88;;
11018;SDS011;5563;52.296;6.806;2023-04-24T15:10:32;5.65;;;2.08;;
11018;SDS011;5563;52.296;6.806;2023-04-24T15:13:06;6.85;;;2.33;;
11018;SDS011;5563;52.296;6.806;2023-04-24T15:15:39;6.43;;;2.47;;
11018;SDS011;5563;52.296;6.806;2023-04-24T15:18:19;4.55;;;2.28;;
11018;SDS011;5563;52.296;6.806;2023-04-24T15:20:46;5.13;;;2.38;;
11018;SDS011;5563;52.296;6.806;2023-04-24T15:23:20;5.60;;;2.95;;
11018;SDS011;5563;52.296;6.806;2023-04-24T15:25:46;9.38;;;2.60;;
11018;SDS011;5563;52.296;6.806;2023-04-24T15:28:20;5.60;;;2.65;;
11018;SDS011;5563;52.296;6.806;2023-04-24T15:30:48;6.88;;;3.28;;
11018;SDS011;5563;52.296;6.806;2023-04-24T15:33:21;7.95;;;3.05;;
11018;SDS011;5563;52.296;6.806;2023-04-24T15:35:47;5.90;;;2.72;;
11018;SDS011;5563;52.296;6.806;2023-04-24T15:38:22;7.43;;;2.90;;
11018;SDS011;5563;52.296;6.806;2023-04-24T15:40:49;9.55;;;2.60;;